sensor_id;sensor_type;location;lat;lon;timestamp;P1;durP1;ratioP1;P2;durP2;ratioP2
17496;SDS011;62150;43.582;1.456;2023-10-13T03:51:59;14.52;;;8.45;;
17496;SDS011;62150;43.582;1.456;2023-10-13T03:54:27;14.32;;;8.55;;
17496;SDS011;62150;43.582;1.456;2023-10-13T03:56:55;14.70;;;9.20;;
17496;SDS011;62150;43.582;1.456;2023-10-13T03:59:29;15.60;;;9.20;;
17496;SDS011;62150;43.582;1.456;2023-10-13T04:02:00;16.30;;;9.50;;
17496;SDS011;62150;43.582;1.456;2023-10-13T04:04:37;14.77;;;8.98;;
17496;SDS011;62150;43.582;1.456;2023-10-13T04:07:15;13.63;;;8.80;;
17496;SDS011;62150;43.582;1.456;2023-10-13T04:10:00;14.30;;;8.93;;
17496;SDS011;62150;43.582;1.456;2023-10-13T04:13:05;14.95;;;9.32;;
17496;SDS011;62150;43.582;1.456;2023-10-13T04:15:50;13.48;;;8.07;;
17496;SDS011;62150;43.582;1.456;2023-10-13T04:18:59;14.38;;;9.07;;
17496;SDS011;62150;43.582;1.456;2023-10-13T04:21:34;16.08;;;9.32;;
17496;SDS011;62150;43.582;1.456;2023-10-13T04:24:25;14.70;;;9.18;;
17496;SDS011;62150;43.582;1.456;2023-10-13T04:27:05;14.90;;;8.93;;
17496;SDS011;62150;43.582;1.456;2023-10-13T04:29:51;13.98;;;8.95;;
17496;SDS011;62150;43.582;1.456;2023-10-13T04:32:35;14.88;;;8.65;;
17496;SDS011;62150;43.582;1.456;2023-10-13T04:35:04;13.70;;;8.75;;
17496;SDS011;62150;43.582;1.456;2023-10-13T04:37:42;14.55;;;8.70;;
17496;SDS011;62150;43.582;1.456;2023-10-13T04:40:17;17.27;;;9.60;;
17496;SDS011;62150;43.582;1.456;2023-10-13T04:42:49;14.27;;;8.90;;
17496;SDS011;62150;43.582;1.456;2023-10-13T04:45:19;13.55;;;9.00;;
17496;SDS011;62150;43.582;1.456;2023-10-13T04:48:13;13.73;;;8.82;;
17496;SDS011;62150;43.582;1.456;2023-10-13T04:50:52;15.18;;;8.73;;
17496;SDS011;62150;43.582;1.456;2023-10-13T04:53:40;15.20;;;8.98;;
17496;SDS011;62150;43.582;1.456;2023-10-13T04:56:22;14.85;;;9.20;;
17496;SDS011;62150;43.582;1.456;2023-10-13T04:59:09;13.15;;;8.23;;
17496;SDS011;62150;43.582;1.456;2023-10-13T05:02:00;14.32;;;9.32;;
17496;SDS011;62150;43.582;1.456;2023-10-13T05:04:41;13.90;;;8.70;;
17496;SDS011;62150;43.582;1.456;2023-10-13T05:07:47;14.57;;;8.80;;
17496;SDS011;62150;43.582;1.456;2023-10-13T05:10:33;14.35;;;8.63;;
17496;SDS011;62150;43.582;1.456;2023-10-13T05:13:20;13.93;;;8.75;;
17496;SDS011;62150;43.582;1.456;2023-10-13T05:16:05;14.15;;;8.25;;
17496;SDS011;62150;43.582;1.456;2023-10-13T05:18:50;14.38;;;8.95;;
17496;SDS011;62150;43.582;1.456;2023-10-13T05:21:35;13.73;;;9.10;;
17496;SDS011;62150;43.582;1.456;2023-10-13T05:24:20;14.45;;;9.48;;
17496;SDS011;62150;43.582;1.456;2023-10-13T05:27:05;14.48;;;8.80;;
17496;SDS011;62150;43.582;1.456;2023-10-13T05:29:51;15.20;;;8.98;;
17496;SDS011;62150;43.582;1.456;2023-10-13T05:32:36;13.23;;;8.35;;
17496;SDS011;62150;43.582;1.456;2023-10-13T05:35:21;14.07;;;8.80;;
17496;SDS011;62150;43.582;1.456;2023-10-13T05:38:06;13.30;;;8.70;;
17496;SDS011;62150;43.582;1.456;2023-10-13T05:40:51;13.52;;;8.98;;
17496;SDS011;62150;43.582;1.456;2023-10-13T05:43:45;13.50;;;8.52;;
17496;SDS011;62150;43.582;1.456;2023-10-13T05:46:32;14.80;;;8.57;;
17496;SDS011;62150;43.582;1.456;2023-10-13T05:49:26;14.35;;;8.65;;
17496;SDS011;62150;43.582;1.456;2023-10-13T05:52:15;14.23;;;9.05;;
17496;SDS011;62150;43.582;1.456;2023-10-13T05:55:05;14.13;;;8.93;;
17496;SDS011;62150;43.582;1.456;2023-10-13T05:57:50;14.07;;;8.52;;
17496;SDS011;62150;43.582;1.456;2023-10-13T06:00:38;14.20;;;8.55;;
17496;SDS011;62150;43.582;1.456;2023-10-13T06:03:26;13.55;;;8.45;;
17496;SDS011;62150;43.582;1.456;2023-10-13T06:06:11;13.43;;;8.57;;
17496;SDS011;62150;43.582;1.456;2023-10-13T06:09:05;14.05;;;8.77;;
17496;SDS011;62150;43.582;1.456;2023-10-13T06:11:50;13.75;;;8.18;;
17496;SDS011;62150;43.582;1.456;2023-10-13T06:14:35;15.40;;;8.38;;
17496;SDS011;62150;43.582;1.456;2023-10-13T06:17:20;16.50;;;8.68;;
17496;SDS011;62150;43.582;1.456;2023-10-13T06:20:08;14.07;;;8.65;;
17496;SDS011;62150;43.582;1.456;2023-10-13T06:22:53;14.20;;;8.52;;
17496;SDS011;62150;43.582;1.456;2023-10-13T06:25:38;13.02;;;8.40;;
17496;SDS011;62150;43.582;1.456;2023-10-13T06:28:23;14.25;;;8.40;;
17496;SDS011;62150;43.582;1.456;2023-10-13T06:31:11;13.55;;;8.88;;
17496;SDS011;62150;43.582;1.456;2023-10-13T06:33:46;13.65;;;7.93;;
17496;SDS011;62150;43.582;1.456;2023-10-13T06:36:15;14.45;;;9.13;;
17496;SDS011;62150;43.582;1.456;2023-10-13T06:38:44;14.75;;;9.50;;
17496;SDS011;62150;43.582;1.456;2023-10-13T06:41:20;15.45;;;9.50;;
17496;SDS011;62150;43.582;1.456;2023-10-13T06:43:55;13.75;;;8.40;;
17496;SDS011;62150;43.582;1.456;2023-10-13T06:46:26;14.05;;;8.80;;
17496;SDS011;62150;43.582;1.456;2023-10-13T06:48:56;13.60;;;8.90;;
17496;SDS011;62150;43.582;1.456;2023-10-13T06:51:26;13.77;;;9.40;;
17496;SDS011;62150;43.582;1.456;2023-10-13T06:54:03;13.38;;;9.13;;
17496;SDS011;62150;43.582;1.456;2023-10-13T06:56:35;14.93;;;9.35;;
17496;SDS011;62150;43.582;1.456;2023-10-13T06:59:05;13.88;;;8.57;;
17496;SDS011;62150;43.582;1.456;2023-10-13T07:01:33;15.70;;;9.45;;
17496;SDS011;62150;43.582;1.456;2023-10-13T07:04:05;14.70;;;9.63;;
17496;SDS011;62150;43.582;1.456;2023-10-13T07:06:40;14.00;;;9.48;;
17496;SDS011;62150;43.582;1.456;2023-10-13T07:09:12;13.43;;;8.52;;
17496;SDS011;62150;43.582;1.456;2023-10-13T07:12:02;13.77;;;9.32;;
17496;SDS011;62150;43.582;1.456;2023-10-13T07:14:31;14.63;;;9.30;;
17496;SDS011;62150;43.582;1.456;2023-10-13T07:17:01;14.27;;;8.90;;
17496;SDS011;62150;43.582;1.456;2023-10-13T07:19:35;15.48;;;9.27;;
17496;SDS011;62150;43.582;1.456;2023-10-13T07:22:19;15.65;;;9.50;;
17496;SDS011;62150;43.582;1.456;2023-10-13T07:24:48;13.45;;;9.10;;
17496;SDS011;62150;43.582;1.456;2023-10-13T07:27:17;14.35;;;8.93;;
17496;SDS011;62150;43.582;1.456;2023-10-13T07:29:49;15.18;;;9.43;;
17496;SDS011;62150;43.582;1.456;2023-10-13T07:32:31;14.73;;;9.68;;
17496;SDS011;62150;43.582;1.456;2023-10-13T07:35:00;14.40;;;9.65;;
17496;SDS011;62150;43.582;1.456;2023-10-13T07:37:35;15.25;;;9.68;;
17496;SDS011;62150;43.582;1.456;2023-10-13T07:40:06;14.80;;;9.52;;
17496;SDS011;62150;43.582;1.456;2023-10-13T07:42:48;14.88;;;9.57;;
17496;SDS011;62150;43.582;1.456;2023-10-13T07:45:15;15.13;;;10.38;;
17496;SDS011;62150;43.582;1.456;2023-10-13T07:47:50;16.50;;;10.23;;
17496;SDS011;62150;43.582;1.456;2023-10-13T07:50:17;16.48;;;10.30;;
17496;SDS011;62150;43.582;1.456;2023-10-13T07:52:51;16.70;;;10.48;;
17496;SDS011;62150;43.582;1.456;2023-10-13T07:55:30;14.45;;;9.73;;
17496;SDS011;62150;43.582;1.456;2023-10-13T07:57:58;14.88;;;9.90;;
17496;SDS011;62150;43.582;1.456;2023-10-13T08:00:32;16.05;;;9.77;;
17496;SDS011;62150;43.582;1.456;2023-10-13T08:03:14;13.13;;;9.20;;
17496;SDS011;62150;43.582;1.456;2023-10-13T08:05:57;15.80;;;10.02;;
17496;SDS011;62150;43.582;1.456;2023-10-13T08:08:31;14.52;;;9.88;;
17496;SDS011;62150;43.582;1.456;2023-10-13T08:11:04;15.80;;;9.90;;
17496;SDS011;62150;43.582;1.456;2023-10-13T08:13:36;14.82;;;9.68;;
17496;SDS011;62150;43.582;1.456;2023-10-13T08:16:11;15.20;;;9.68;;
17496;SDS011;62150;43.582;1.456;2023-10-13T08:18:45;14.43;;;9.57;;
17496;SDS011;62150;43.582;1.456;2023-10-13T08:21:14;14.77;;;9.75;;
17496;SDS011;62150;43.582;1.456;2023-10-13T08:23:46;14.95;;;9.20;;
17496;SDS011;62150;43.582;1.456;2023-10-13T08:26:32;15.13;;;10.00;;
17496;SDS011;62150;43.582;1.456;2023-10-13T08:29:19;14.93;;;9.43;;
17496;SDS011;62150;43.582;1.456;2023-10-13T08:32:04;14.18;;;9.43;;
17496;SDS011;62150;43.582;1.456;2023-10-13T08:34:48;15.05;;;9.35;;
17496;SDS011;62150;43.582;1.456;2023-10-13T08:37:33;13.38;;;8.88;;
17496;SDS011;62150;43.582;1.456;2023-10-13T08:40:13;14.60;;;8.63;;
17496;SDS011;62150;43.582;1.456;2023-10-13T08:43:06;15.32;;;9.35;;
17496;SDS011;62150;43.582;1.456;2023-10-13T08:45:37;14.18;;;8.63;;
17496;SDS011;62150;43.582;1.456;2023-10-13T08:48:23;13.57;;;8.23;;
17496;SDS011;62150;43.582;1.456;2023-10-13T08:50:59;13.73;;;8.90;;
17496;SDS011;62150;43.582;1.456;2023-10-13T08:53:35;14.98;;;8.95;;
17496;SDS011;62150;43.582;1.456;2023-10-13T08:56:14;14.95;;;9.40;;
17496;SDS011;62150;43.582;1.456;2023-10-13T08:58:57;13.48;;;8.63;;
17496;SDS011;62150;43.582;1.456;2023-10-13T09:01:35;14.55;;;9.55;;
17496;SDS011;62150;43.582;1.456;2023-10-13T09:04:10;14.38;;;9.10;;
17496;SDS011;62150;43.582;1.456;2023-10-13T09:06:49;13.23;;;8.15;;
17496;SDS011;62150;43.582;1.456;2023-10-13T09:09:45;12.75;;;8.32;;
17496;SDS011;62150;43.582;1.456;2023-10-13T09:12:40;13.63;;;8.57;;
17496;SDS011;62150;43.582;1.456;2023-10-13T09:15:41;14.98;;;8.52;;
17496;SDS011;62150;43.582;1.456;2023-10-13T09:18:25;13.15;;;8.00;;
17496;SDS011;62150;43.582;1.456;2023-10-13T09:21:12;14.50;;;8.77;;
17496;SDS011;62150;43.582;1.456;2023-10-13T09:23:59;16.27;;;8.73;;
17496;SDS011;62150;43.582;1.456;2023-10-13T09:37:22;13.40;;;8.50;;
17496;SDS011;62150;43.582;1.456;2023-10-13T09:39:52;12.65;;;7.72;;
17496;SDS011;62150;43.582;1.456;2023-10-13T09:42:30;12.77;;;8.02;;
17496;SDS011;62150;43.582;1.456;2023-10-13T09:44:59;13.40;;;8.38;;
17496;SDS011;62150;43.582;1.456;2023-10-13T09:47:29;13.80;;;8.93;;
17496;SDS011;62150;43.582;1.456;2023-10-13T09:50:06;34.63;;;9.93;;
17496;SDS011;62150;43.582;1.456;2023-10-13T09:52:50;17.05;;;8.55;;
17496;SDS011;62150;43.582;1.456;2023-10-13T09:55:21;14.38;;;8.15;;
17496;SDS011;62150;43.582;1.456;2023-10-13T09:57:54;12.40;;;8.38;;
17496;SDS011;62150;43.582;1.456;2023-10-13T10:00:35;13.30;;;8.20;;
17496;SDS011;62150;43.582;1.456;2023-10-13T10:03:14;12.95;;;7.85;;
17496;SDS011;62150;43.582;1.456;2023-10-13T10:05:56;13.85;;;7.47;;
17496;SDS011;62150;43.582;1.456;2023-10-13T10:08:32;12.75;;;8.15;;
17496;SDS011;62150;43.582;1.456;2023-10-13T10:11:17;13.18;;;8.07;;
17496;SDS011;62150;43.582;1.456;2023-10-13T10:14:12;12.00;;;7.57;;
17496;SDS011;62150;43.582;1.456;2023-10-13T10:16:47;12.68;;;8.40;;
17496;SDS011;62150;43.582;1.456;2023-10-13T10:19:26;13.18;;;8.13;;
17496;SDS011;62150;43.582;1.456;2023-10-13T10:22:01;13.73;;;7.82;;
17496;SDS011;62150;43.582;1.456;2023-10-13T10:24:43;13.40;;;8.10;;
17496;SDS011;62150;43.582;1.456;2023-10-13T10:27:11;11.95;;;7.88;;
17496;SDS011;62150;43.582;1.456;2023-10-13T10:29:39;12.93;;;7.85;;
17496;SDS011;62150;43.582;1.456;2023-10-13T10:32:18;12.13;;;7.90;;
17496;SDS011;62150;43.582;1.456;2023-10-13T10:34:46;12.95;;;8.23;;
17496;SDS011;62150;43.582;1.456;2023-10-13T10:37:14;12.80;;;8.20;;
17496;SDS011;62150;43.582;1.456;2023-10-13T10:39:44;13.68;;;7.47;;
17496;SDS011;62150;43.582;1.456;2023-10-13T10:42:13;12.80;;;7.90;;
17496;SDS011;62150;43.582;1.456;2023-10-13T10:44:49;12.90;;;7.55;;
17496;SDS011;62150;43.582;1.456;2023-10-13T10:47:30;12.30;;;7.57;;
17496;SDS011;62150;43.582;1.456;2023-10-13T10:50:02;11.88;;;7.22;;
17496;SDS011;62150;43.582;1.456;2023-10-13T10:52:43;11.02;;;7.03;;
17496;SDS011;62150;43.582;1.456;2023-10-13T10:55:13;12.52;;;7.60;;
17496;SDS011;62150;43.582;1.456;2023-10-13T10:57:47;12.25;;;7.32;;
17496;SDS011;62150;43.582;1.456;2023-10-13T11:00:26;11.68;;;7.15;;
17496;SDS011;62150;43.582;1.456;2023-10-13T11:03:07;11.10;;;6.75;;
17496;SDS011;62150;43.582;1.456;2023-10-13T11:05:42;12.27;;;6.93;;
17496;SDS011;62150;43.582;1.456;2023-10-13T11:08:20;12.32;;;7.30;;
17496;SDS011;62150;43.582;1.456;2023-10-13T11:10:58;10.85;;;6.43;;
17496;SDS011;62150;43.582;1.456;2023-10-13T11:13:26;11.43;;;6.78;;
17496;SDS011;62150;43.582;1.456;2023-10-13T11:15:56;12.27;;;6.40;;
17496;SDS011;62150;43.582;1.456;2023-10-13T11:18:30;13.07;;;6.63;;
17496;SDS011;62150;43.582;1.456;2023-10-13T11:21:05;11.82;;;6.93;;
17496;SDS011;62150;43.582;1.456;2023-10-13T11:23:36;11.68;;;6.50;;
17496;SDS011;62150;43.582;1.456;2023-10-13T11:26:06;11.30;;;6.68;;
17496;SDS011;62150;43.582;1.456;2023-10-13T11:28:34;11.73;;;6.28;;
17496;SDS011;62150;43.582;1.456;2023-10-13T11:31:03;11.50;;;7.00;;
17496;SDS011;62150;43.582;1.456;2023-10-13T11:33:43;11.38;;;6.50;;
17496;SDS011;62150;43.582;1.456;2023-10-13T11:36:12;10.68;;;5.78;;
17496;SDS011;62150;43.582;1.456;2023-10-13T11:38:42;10.80;;;6.15;;
17496;SDS011;62150;43.582;1.456;2023-10-13T11:41:16;11.68;;;6.70;;
17496;SDS011;62150;43.582;1.456;2023-10-13T11:43:45;12.10;;;6.30;;
17496;SDS011;62150;43.582;1.456;2023-10-13T11:46:32;10.82;;;6.25;;
17496;SDS011;62150;43.582;1.456;2023-10-13T11:49:18;12.45;;;6.43;;
17496;SDS011;62150;43.582;1.456;2023-10-13T11:51:57;12.27;;;6.53;;
17496;SDS011;62150;43.582;1.456;2023-10-13T11:54:38;11.68;;;6.50;;
17496;SDS011;62150;43.582;1.456;2023-10-13T11:57:08;10.77;;;6.10;;
17496;SDS011;62150;43.582;1.456;2023-10-13T11:59:36;10.55;;;5.85;;
17496;SDS011;62150;43.582;1.456;2023-10-13T12:02:12;11.73;;;5.93;;
17496;SDS011;62150;43.582;1.456;2023-10-13T12:04:53;13.13;;;6.13;;
17496;SDS011;62150;43.582;1.456;2023-10-13T12:07:22;10.27;;;5.93;;
17496;SDS011;62150;43.582;1.456;2023-10-13T12:09:52;11.23;;;5.85;;
17496;SDS011;62150;43.582;1.456;2023-10-13T12:12:33;10.93;;;5.88;;
17496;SDS011;62150;43.582;1.456;2023-10-13T12:15:08;9.95;;;5.63;;
17496;SDS011;62150;43.582;1.456;2023-10-13T12:17:50;11.85;;;6.32;;
17496;SDS011;62150;43.582;1.456;2023-10-13T12:20:17;10.38;;;5.95;;
17496;SDS011;62150;43.582;1.456;2023-10-13T12:22:57;11.13;;;5.75;;
17496;SDS011;62150;43.582;1.456;2023-10-13T12:25:35;11.20;;;5.93;;
17496;SDS011;62150;43.582;1.456;2023-10-13T12:28:21;11.73;;;5.95;;
17496;SDS011;62150;43.582;1.456;2023-10-13T12:30:48;10.48;;;5.72;;
17496;SDS011;62150;43.582;1.456;2023-10-13T12:33:17;11.10;;;5.60;;
17496;SDS011;62150;43.582;1.456;2023-10-13T12:35:57;10.80;;;5.68;;
17496;SDS011;62150;43.582;1.456;2023-10-13T12:38:40;10.02;;;5.65;;
17496;SDS011;62150;43.582;1.456;2023-10-13T12:41:37;10.20;;;5.40;;
17496;SDS011;62150;43.582;1.456;2023-10-13T12:44:23;10.25;;;5.60;;
17496;SDS011;62150;43.582;1.456;2023-10-13T12:47:08;10.40;;;5.20;;
17496;SDS011;62150;43.582;1.456;2023-10-13T12:49:53;10.27;;;5.07;;
17496;SDS011;62150;43.582;1.456;2023-10-13T12:52:30;10.32;;;5.25;;
17496;SDS011;62150;43.582;1.456;2023-10-13T12:54:58;10.82;;;5.30;;
17496;SDS011;62150;43.582;1.456;2023-10-13T12:57:32;9.20;;;4.75;;
17496;SDS011;62150;43.582;1.456;2023-10-13T13:00:10;10.25;;;5.45;;
17496;SDS011;62150;43.582;1.456;2023-10-13T13:02:49;9.45;;;4.82;;
17496;SDS011;62150;43.582;1.456;2023-10-13T13:05:20;9.57;;;5.10;;
17496;SDS011;62150;43.582;1.456;2023-10-13T13:07:53;10.55;;;5.18;;
17496;SDS011;62150;43.582;1.456;2023-10-13T13:10:21;9.88;;;5.00;;
17496;SDS011;62150;43.582;1.456;2023-10-13T13:13:05;9.95;;;4.95;;
17496;SDS011;62150;43.582;1.456;2023-10-13T13:15:35;12.73;;;5.70;;
17496;SDS011;62150;43.582;1.456;2023-10-13T13:18:03;10.13;;;5.20;;
17496;SDS011;62150;43.582;1.456;2023-10-13T13:20:37;10.77;;;5.28;;
17496;SDS011;62150;43.582;1.456;2023-10-13T13:23:08;10.77;;;5.13;;
17496;SDS011;62150;43.582;1.456;2023-10-13T13:25:37;9.82;;;5.15;;
17496;SDS011;62150;43.582;1.456;2023-10-13T13:28:08;10.10;;;4.80;;
17496;SDS011;62150;43.582;1.456;2023-10-13T13:30:37;9.98;;;4.78;;
17496;SDS011;62150;43.582;1.456;2023-10-13T13:33:07;11.10;;;4.82;;
17496;SDS011;62150;43.582;1.456;2023-10-13T13:35:37;9.60;;;5.03;;
17496;SDS011;62150;43.582;1.456;2023-10-13T13:38:07;10.43;;;5.05;;
17496;SDS011;62150;43.582;1.456;2023-10-13T13:40:47;9.90;;;5.25;;
17496;SDS011;62150;43.582;1.456;2023-10-13T13:43:19;9.90;;;4.80;;
17496;SDS011;62150;43.582;1.456;2023-10-13T13:46:04;10.07;;;5.00;;
17496;SDS011;62150;43.582;1.456;2023-10-13T13:48:35;9.18;;;4.65;;
17496;SDS011;62150;43.582;1.456;2023-10-13T13:51:03;10.20;;;4.82;;
17496;SDS011;62150;43.582;1.456;2023-10-13T13:53:38;10.48;;;4.80;;
17496;SDS011;62150;43.582;1.456;2023-10-13T13:56:10;9.45;;;4.75;;
17496;SDS011;62150;43.582;1.456;2023-10-13T13:58:41;10.80;;;4.93;;
17496;SDS011;62150;43.582;1.456;2023-10-13T14:01:10;10.30;;;4.80;;
17496;SDS011;62150;43.582;1.456;2023-10-13T14:03:40;8.98;;;4.55;;
17496;SDS011;62150;43.582;1.456;2023-10-13T14:06:15;9.50;;;4.88;;
17496;SDS011;62150;43.582;1.456;2023-10-13T14:08:46;9.45;;;4.93;;
17496;SDS011;62150;43.582;1.456;2023-10-13T14:11:16;10.43;;;5.07;;
17496;SDS011;62150;43.582;1.456;2023-10-13T14:13:58;9.75;;;4.45;;
17496;SDS011;62150;43.582;1.456;2023-10-13T14:16:30;10.20;;;4.60;;
17496;SDS011;62150;43.582;1.456;2023-10-13T14:18:58;9.98;;;4.85;;
17496;SDS011;62150;43.582;1.456;2023-10-13T14:21:27;9.43;;;4.72;;
17496;SDS011;62150;43.582;1.456;2023-10-13T14:23:54;9.98;;;4.88;;
17496;SDS011;62150;43.582;1.456;2023-10-13T14:26:25;11.15;;;4.60;;
17496;SDS011;62150;43.582;1.456;2023-10-13T14:28:53;8.85;;;4.40;;
17496;SDS011;62150;43.582;1.456;2023-10-13T14:31:27;9.18;;;5.10;;
17496;SDS011;62150;43.582;1.456;2023-10-13T14:33:56;9.40;;;4.78;;
17496;SDS011;62150;43.582;1.456;2023-10-13T14:36:24;8.75;;;4.53;;
17496;SDS011;62150;43.582;1.456;2023-10-13T14:38:53;9.98;;;4.72;;
17496;SDS011;62150;43.582;1.456;2023-10-13T14:41:21;17.90;;;5.90;;
17496;SDS011;62150;43.582;1.456;2023-10-13T14:43:49;14.75;;;5.70;;
17496;SDS011;62150;43.582;1.456;2023-10-13T14:46:17;19.80;;;5.97;;
17496;SDS011;62150;43.582;1.456;2023-10-13T14:48:48;11.50;;;5.25;;
17496;SDS011;62150;43.582;1.456;2023-10-13T14:51:19;11.82;;;5.20;;
17496;SDS011;62150;43.582;1.456;2023-10-13T14:53:47;11.82;;;5.53;;
17496;SDS011;62150;43.582;1.456;2023-10-13T14:56:15;10.60;;;4.95;;
17496;SDS011;62150;43.582;1.456;2023-10-13T14:58:43;8.70;;;5.00;;
17496;SDS011;62150;43.582;1.456;2023-10-13T15:01:12;8.63;;;4.75;;
17496;SDS011;62150;43.582;1.456;2023-10-13T15:03:40;12.43;;;4.82;;
17496;SDS011;62150;43.582;1.456;2023-10-13T15:06:14;12.25;;;5.00;;
17496;SDS011;62150;43.582;1.456;2023-10-13T15:08:45;10.60;;;4.80;;
17496;SDS011;62150;43.582;1.456;2023-10-13T15:11:14;10.73;;;5.15;;
17496;SDS011;62150;43.582;1.456;2023-10-13T15:13:43;10.75;;;5.20;;
17496;SDS011;62150;43.582;1.456;2023-10-13T15:16:14;10.10;;;4.90;;
17496;SDS011;62150;43.582;1.456;2023-10-13T15:18:43;10.05;;;5.15;;
17496;SDS011;62150;43.582;1.456;2023-10-13T15:21:11;9.68;;;5.07;;
17496;SDS011;62150;43.582;1.456;2023-10-13T15:23:47;10.45;;;5.18;;
17496;SDS011;62150;43.582;1.456;2023-10-13T15:26:16;10.98;;;5.00;;
17496;SDS011;62150;43.582;1.456;2023-10-13T15:28:46;10.05;;;5.00;;
17496;SDS011;62150;43.582;1.456;2023-10-13T15:31:15;9.65;;;5.07;;
17496;SDS011;62150;43.582;1.456;2023-10-13T15:34:03;10.40;;;4.78;;
17496;SDS011;62150;43.582;1.456;2023-10-13T15:36:38;12.00;;;5.13;;
17496;SDS011;62150;43.582;1.456;2023-10-13T15:39:09;10.00;;;5.00;;
17496;SDS011;62150;43.582;1.456;2023-10-13T15:41:37;10.40;;;4.95;;
17496;SDS011;62150;43.582;1.456;2023-10-13T15:44:04;10.88;;;5.00;;
17496;SDS011;62150;43.582;1.456;2023-10-13T15:46:36;9.27;;;4.95;;
17496;SDS011;62150;43.582;1.456;2023-10-13T15:49:04;9.13;;;4.82;;
17496;SDS011;62150;43.582;1.456;2023-10-13T15:51:32;9.52;;;5.03;;
17496;SDS011;62150;43.582;1.456;2023-10-13T15:54:02;10.00;;;5.35;;
17496;SDS011;62150;43.582;1.456;2023-10-13T15:56:37;9.75;;;5.50;;
17496;SDS011;62150;43.582;1.456;2023-10-13T15:59:05;9.98;;;5.13;;
17496;SDS011;62150;43.582;1.456;2023-10-13T16:01:33;10.75;;;5.20;;
17496;SDS011;62150;43.582;1.456;2023-10-13T16:04:01;10.75;;;4.88;;
17496;SDS011;62150;43.582;1.456;2023-10-13T16:06:36;10.70;;;5.20;;
17496;SDS011;62150;43.582;1.456;2023-10-13T16:09:04;10.48;;;5.05;;
17496;SDS011;62150;43.582;1.456;2023-10-13T16:11:40;9.77;;;4.97;;
17496;SDS011;62150;43.582;1.456;2023-10-13T16:14:08;10.07;;;5.18;;
17496;SDS011;62150;43.582;1.456;2023-10-13T16:16:40;9.80;;;4.78;;
17496;SDS011;62150;43.582;1.456;2023-10-13T16:19:11;10.52;;;5.30;;
17496;SDS011;62150;43.582;1.456;2023-10-13T16:21:42;11.02;;;5.43;;
17496;SDS011;62150;43.582;1.456;2023-10-13T16:24:10;10.98;;;5.18;;
17496;SDS011;62150;43.582;1.456;2023-10-13T16:26:43;9.90;;;5.00;;
17496;SDS011;62150;43.582;1.456;2023-10-13T16:29:14;10.02;;;5.10;;
17496;SDS011;62150;43.582;1.456;2023-10-13T16:31:42;9.90;;;5.05;;
17496;SDS011;62150;43.582;1.456;2023-10-13T16:34:11;9.07;;;4.97;;
17496;SDS011;62150;43.582;1.456;2023-10-13T16:36:40;8.65;;;4.75;;
17496;SDS011;62150;43.582;1.456;2023-10-13T16:39:09;10.45;;;5.03;;
17496;SDS011;62150;43.582;1.456;2023-10-13T16:41:39;9.93;;;5.10;;
17496;SDS011;62150;43.582;1.456;2023-10-13T16:44:11;9.07;;;4.93;;
17496;SDS011;62150;43.582;1.456;2023-10-13T16:46:39;10.52;;;4.68;;
17496;SDS011;62150;43.582;1.456;2023-10-13T16:49:07;9.43;;;5.20;;
17496;SDS011;62150;43.582;1.456;2023-10-13T16:51:36;11.15;;;5.18;;
17496;SDS011;62150;43.582;1.456;2023-10-13T16:54:05;10.40;;;5.28;;
17496;SDS011;62150;43.582;1.456;2023-10-13T16:56:33;9.23;;;4.72;;
17496;SDS011;62150;43.582;1.456;2023-10-13T16:59:03;9.90;;;4.70;;
17496;SDS011;62150;43.582;1.456;2023-10-13T17:01:33;9.73;;;4.90;;
17496;SDS011;62150;43.582;1.456;2023-10-13T17:04:02;9.60;;;4.47;;
17496;SDS011;62150;43.582;1.456;2023-10-13T17:06:30;10.93;;;5.13;;
17496;SDS011;62150;43.582;1.456;2023-10-13T17:08:58;12.15;;;5.70;;
17496;SDS011;62150;43.582;1.456;2023-10-13T17:11:28;9.52;;;5.28;;
17496;SDS011;62150;43.582;1.456;2023-10-13T17:13:56;11.07;;;5.30;;
17496;SDS011;62150;43.582;1.456;2023-10-13T17:16:24;9.68;;;5.00;;
17496;SDS011;62150;43.582;1.456;2023-10-13T17:18:52;9.90;;;5.47;;
17496;SDS011;62150;43.582;1.456;2023-10-13T17:21:21;9.02;;;4.97;;
17496;SDS011;62150;43.582;1.456;2023-10-13T17:23:51;11.60;;;5.80;;
17496;SDS011;62150;43.582;1.456;2023-10-13T17:26:19;10.10;;;5.30;;
17496;SDS011;62150;43.582;1.456;2023-10-13T17:28:49;10.70;;;5.43;;
17496;SDS011;62150;43.582;1.456;2023-10-13T17:31:19;9.82;;;5.70;;
17496;SDS011;62150;43.582;1.456;2023-10-13T17:33:47;11.02;;;5.70;;
17496;SDS011;62150;43.582;1.456;2023-10-13T17:36:16;11.02;;;5.85;;
17496;SDS011;62150;43.582;1.456;2023-10-13T17:38:44;9.98;;;5.50;;
17496;SDS011;62150;43.582;1.456;2023-10-13T17:41:12;12.25;;;5.40;;
17496;SDS011;62150;43.582;1.456;2023-10-13T17:43:40;10.60;;;5.18;;
17496;SDS011;62150;43.582;1.456;2023-10-13T17:46:10;10.10;;;5.60;;
17496;SDS011;62150;43.582;1.456;2023-10-13T17:48:40;10.98;;;5.55;;
17496;SDS011;62150;43.582;1.456;2023-10-13T17:51:09;10.70;;;5.55;;
17496;SDS011;62150;43.582;1.456;2023-10-13T17:53:39;11.30;;;5.90;;
17496;SDS011;62150;43.582;1.456;2023-10-13T17:56:08;10.80;;;6.00;;
17496;SDS011;62150;43.582;1.456;2023-10-13T17:58:37;11.88;;;5.60;;
17496;SDS011;62150;43.582;1.456;2023-10-13T18:01:06;11.38;;;5.90;;
17496;SDS011;62150;43.582;1.456;2023-10-13T18:03:34;9.77;;;5.40;;
17496;SDS011;62150;43.582;1.456;2023-10-13T18:06:04;10.38;;;5.20;;
17496;SDS011;62150;43.582;1.456;2023-10-13T18:08:35;10.07;;;5.40;;
17496;SDS011;62150;43.582;1.456;2023-10-13T18:11:05;9.82;;;5.05;;
17496;SDS011;62150;43.582;1.456;2023-10-13T18:13:32;10.95;;;5.65;;
17496;SDS011;62150;43.582;1.456;2023-10-13T18:16:10;11.20;;;5.80;;
17496;SDS011;62150;43.582;1.456;2023-10-13T18:18:39;11.43;;;5.57;;
17496;SDS011;62150;43.582;1.456;2023-10-13T18:21:07;11.82;;;5.50;;
17496;SDS011;62150;43.582;1.456;2023-10-13T18:23:37;10.20;;;5.68;;
17496;SDS011;62150;43.582;1.456;2023-10-13T18:26:09;11.77;;;5.63;;
17496;SDS011;62150;43.582;1.456;2023-10-13T18:28:37;10.50;;;5.30;;
17496;SDS011;62150;43.582;1.456;2023-10-13T18:31:05;10.75;;;5.30;;
17496;SDS011;62150;43.582;1.456;2023-10-13T18:33:36;11.65;;;5.63;;
17496;SDS011;62150;43.582;1.456;2023-10-13T18:36:11;12.30;;;5.88;;
17496;SDS011;62150;43.582;1.456;2023-10-13T18:38:40;10.35;;;5.68;;
17496;SDS011;62150;43.582;1.456;2023-10-13T18:41:09;10.80;;;5.72;;
17496;SDS011;62150;43.582;1.456;2023-10-13T18:43:39;9.65;;;5.53;;
17496;SDS011;62150;43.582;1.456;2023-10-13T18:46:08;11.10;;;5.53;;
17496;SDS011;62150;43.582;1.456;2023-10-13T18:48:36;10.23;;;5.53;;
17496;SDS011;62150;43.582;1.456;2023-10-13T18:51:05;11.65;;;6.07;;
17496;SDS011;62150;43.582;1.456;2023-10-13T18:53:35;11.27;;;6.03;;
17496;SDS011;62150;43.582;1.456;2023-10-13T18:56:05;11.63;;;5.72;;
17496;SDS011;62150;43.582;1.456;2023-10-13T18:58:38;11.93;;;6.10;;
17496;SDS011;62150;43.582;1.456;2023-10-13T19:01:10;11.35;;;6.03;;
17496;SDS011;62150;43.582;1.456;2023-10-13T19:03:40;10.70;;;6.03;;
17496;SDS011;62150;43.582;1.456;2023-10-13T19:06:08;11.15;;;5.93;;
17496;SDS011;62150;43.582;1.456;2023-10-13T19:08:40;10.90;;;5.60;;
17496;SDS011;62150;43.582;1.456;2023-10-13T19:11:08;12.05;;;6.20;;
17496;SDS011;62150;43.582;1.456;2023-10-13T19:13:36;11.65;;;6.05;;
17496;SDS011;62150;43.582;1.456;2023-10-13T19:16:06;11.27;;;6.07;;
17496;SDS011;62150;43.582;1.456;2023-10-13T19:18:34;11.35;;;6.28;;
17496;SDS011;62150;43.582;1.456;2023-10-13T19:21:05;10.98;;;6.15;;
17496;SDS011;62150;43.582;1.456;2023-10-13T19:23:39;11.23;;;5.93;;